Ruby Princess — ZCDY2 — position and weather

sailwx.info

Track history (hours):
 
Tides and Currents Weather Stations Pressure Air Temp Water Temp Dewpoint Dewpoint Depression Visibility Wind Speed Wind Dir Waves Ship Positions

Ruby Princess

Last reported at 2018-Nov-12 06:00 UTC. Time now 2018-Nov-13 06:46 UTC.
Position N 36°36' W 122°48'.

Length 289 m; draft 8.7 m.

Type: Ship. MMSI: 310567000.

Wind from 040 at 11 knots

Barometer 1022.4 mb
Air temperature 14.0 ° C
Visibility: greater than 5.4 NM
Dewpoint 13.1 ° C
Water temperature 14.0 ° C

Date/timePositionNaut miles runAvg speedWind from/ knotsBaromVisibWave heightAir tempDewpointWater temp
2018-Nov-12 06:00N 36°36' W 122°48'11810.7 040 / 111022.4 5.4 14.013.114.0
2018-Nov-11 19:00N 35°00' W 121°24'162 9.8 080 / 71018.3 5.4 16.014.316.0
2018-Nov-11 02:32N 33°43' W 118°31'510.6
2018-Nov-11 02:03N 33°41' W 118°26'510.2
2018-Nov-11 01:33N 33°38' W 118°20'510.1
2018-Nov-11 01:03N 33°41' W 118°15'3 6.5
2018-Nov-11 00:32N 33°44' W 118°17'1 1.4
2018-Nov-11 00:01N 33°45' W 118°17'0 0.0
2018-Nov-10 23:31N 33°45' W 118°17'0 0.3
2018-Nov-10 23:07N 33°45' W 118°17'0 0.9
2018-Nov-10 23:00N 33°45' W 118°17'0 1.2
2018-Nov-10 22:55N 33°45' W 118°17'0 0.3
2018-Nov-10 22:30N 33°45' W 118°17'0 0.0
2018-Nov-10 22:00N 33°45' W 118°17'0 0.0
2018-Nov-10 21:30N 33°45' W 118°17'0 0.0
2018-Nov-10 21:00N 33°45' W 118°17'0 0.0
2018-Nov-10 20:32N 33°45' W 118°17'0 0.0
2018-Nov-10 20:02N 33°45' W 118°17'0 0.0
2018-Nov-10 19:32N 33°45' W 118°17'0 0.0
2018-Nov-10 19:02N 33°45' W 118°17'0 0.0
2018-Nov-10 18:31N 33°45' W 118°17'0 0.0
2018-Nov-10 18:01N 33°45' W 118°17'0 0.0
2018-Nov-10 17:31N 33°45' W 118°17'0 0.0
2018-Nov-10 17:01N 33°45' W 118°17'0 0.0
2018-Nov-10 16:31N 33°45' W 118°17'0 0.0
2018-Nov-10 16:01N 33°45' W 118°17'0 0.0
2018-Nov-10 15:31N 33°45' W 118°17'0 0.0
2018-Nov-10 15:01N 33°45' W 118°17'0 0.0
2018-Nov-10 14:30N 33°45' W 118°17'0 0.0
2018-Nov-10 14:03N 33°45' W 118°17'1 1.8
2018-Nov-10 13:32N 33°44' W 118°17'4 7.4
2018-Nov-10 13:03N 33°41' W 118°14'510.5
2018-Nov-10 12:32N 33°37' W 118°10'611.9
2018-Nov-10 12:03N 33°31' W 118°07'612.0
2018-Nov-10 11:32N 33°26' W 118°05'612.4
2018-Nov-10 11:03N 33°20' W 118°03'611.9
2018-Nov-10 10:33N 33°14' W 118°00'713.4
2018-Nov-10 10:02N 33°08' W 117°57'713.5
2018-Nov-10 09:32N 33°02' W 117°55'613.1
2018-Nov-10 09:03N 32°55' W 117°52'612.9
2018-Nov-10 08:32N 32°49' W 117°49'612.5
2018-Nov-10 08:02N 32°44' W 117°45'612.6
2018-Nov-10 07:32N 32°39' W 117°41'612.6
2018-Nov-10 07:02N 32°33' W 117°41'612.7
2018-Nov-10 06:33N 32°27' W 117°38'612.8
2018-Nov-10 06:02N 32°21' W 117°34'713.3
2018-Nov-10 05:33N 32°15' W 117°30'26 1.5
2018-Nov-09 11:46N 31°53' W 117°14'210.9
2018-Nov-09 11:32N 31°55' W 117°16'510.9
2018-Nov-09 11:02N 31°60' W 117°19'510.9
2018-Nov-09 10:32N 32°05' W 117°22'611.3
2018-Nov-09 10:02N 32°10' W 117°26'611.7
2018-Nov-09 09:32N 32°15' W 117°29'611.3
2018-Nov-09 09:02N 32°20' W 117°32'510.4
2018-Nov-09 08:32N 32°24' W 117°29'611.1
2018-Nov-09 08:02N 32°28' W 117°25'611.4
2018-Nov-09 07:32N 32°32' W 117°20'611.8
2018-Nov-09 07:02N 32°37' W 117°15'510.5
2018-Nov-09 06:32N 32°42' W 117°14'3 6.0
2018-Nov-09 06:02N 32°43' W 117°11'0 0.3
2018-Nov-09 05:32N 32°43' W 117°10'0 0.0
2018-Nov-09 05:02N 32°43' W 117°10'0 0.0
2018-Nov-09 04:29N 32°43' W 117°10'0 0.0
2018-Nov-09 04:01N 32°43' W 117°10'0 0.0
2018-Nov-09 03:31N 32°43' W 117°10'0 0.0
2018-Nov-09 02:58N 32°43' W 117°10'0 0.0
2018-Nov-09 02:31N 32°43' W 117°10'0 0.0
2018-Nov-09 01:58N 32°43' W 117°10'0 0.0
2018-Nov-09 01:30N 32°43' W 117°10'0 0.0
2018-Nov-09 01:00N 32°43' W 117°10'0 0.0
2018-Nov-09 00:15N 32°43' W 117°10'0 0.0
2018-Nov-08 23:57N 32°43' W 117°10'0 0.0
2018-Nov-08 23:14N 32°43' W 117°10'0 0.0
2018-Nov-08 23:02N 32°43' W 117°10'0 0.0
2018-Nov-08 22:32N 32°43' W 117°10'0 0.0
2018-Nov-08 22:02N 32°43' W 117°10'0 0.0
2018-Nov-08 21:32N 32°43' W 117°10'0 0.0
2018-Nov-08 21:01N 32°43' W 117°10'0 0.0
2018-Nov-08 20:31N 32°43' W 117°10'0 0.0
2018-Nov-08 20:01N 32°43' W 117°10'0 0.0
2018-Nov-08 19:31N 32°43' W 117°10'0 0.0
2018-Nov-08 18:58N 32°43' W 117°10'0 0.0
2018-Nov-08 18:30N 32°43' W 117°10'0 0.0
2018-Nov-08 18:00N 32°43' W 117°10'0 0.0
2018-Nov-08 17:30N 32°43' W 117°10'0 0.0
2018-Nov-08 16:54N 32°43' W 117°10'0 0.0
2018-Nov-08 16:32N 32°43' W 117°10'0 0.0
2018-Nov-08 15:59N 32°43' W 117°10'0 0.0
2018-Nov-08 15:33N 32°43' W 117°10'2 4.8
2018-Nov-08 15:02N 32°43' W 117°13'511.0
2018-Nov-08 14:32N 32°37' W 117°14'5 9.3
2018-Nov-08 14:03N 32°36' W 117°19'510.5
2018-Nov-08 13:32N 32°35' W 117°25'5 9.9
2018-Nov-08 13:02N 32°34' W 117°31'5 9.5
2018-Nov-08 12:33N 32°34' W 117°36'5 9.6
2018-Nov-08 12:02N 32°34' W 117°42'5 9.6
2018-Nov-08 11:32N 32°34' W 117°48'5 9.3
2018-Nov-08 11:02N 32°34' W 117°53'5 9.5
2018-Nov-08 10:32N 32°34' W 117°59'5 9.2
2018-Nov-08 10:02N 32°34' W 118°05'5 9.5
2018-Nov-08 09:32N 32°34' W 118°10'5 9.8
2018-Nov-08 09:02N 32°34' W 118°16'5 9.8
2018-Nov-08 08:32N 32°34' W 118°22'510.1
2018-Nov-08 08:02N 32°34' W 118°28'510.2
2018-Nov-08 07:33N 32°35' W 118°34'510.1
2018-Nov-08 07:02N 32°38' W 118°39'510.0
2018-Nov-08 06:32N 32°40' W 118°44'510.0
2018-Nov-08 06:03N 32°44' W 118°48'510.0
2018-Nov-08 05:32N 32°48' W 118°51'510.4
2018-Nov-08 05:02N 32°53' W 118°54'610.2
2018-Nov-08 04:24N 32°58' W 118°58'410.1
2018-Nov-08 04:02N 33°01' W 119°00'5 9.8
2018-Nov-08 03:31N 33°06' W 119°04'5 9.7
2018-Nov-08 02:59N 33°10' W 119°07'510.1
2018-Nov-08 02:32N 33°14' W 119°10'510.1
2018-Nov-08 02:02N 33°18' W 119°13'611.6
2018-Nov-08 01:32N 33°23' W 119°17'611.5
2018-Nov-08 01:02N 33°28' W 119°20'411.1
2018-Nov-08 00:43N 33°31' W 119°23'210.1
2018-Nov-08 00:32N 33°32' W 119°24'110.0
2018-Nov-08 00:28N 33°33' W 119°24'4 9.9
2018-Nov-08 00:02N 33°35' W 119°29'510.2
2018-Nov-07 23:32N 33°37' W 119°35'510.4
2018-Nov-07 23:02N 33°38' W 119°40'510.6
2018-Nov-07 22:32N 33°40' W 119°47'612.0
2018-Nov-07 22:02N 33°42' W 119°53'816.1
2018-Nov-07 21:31N 33°45' W 120°03'715.7
2018-Nov-07 21:02N 33°47' W 120°11'815.7
2018-Nov-07 20:32N 33°49' W 120°21'815.5
2018-Nov-07 20:02N 33°52' W 120°29'815.1
2018-Nov-07 19:32N 33°56' W 120°37'715.0
2018-Nov-07 19:03N 34°01' W 120°44'815.3
2018-Nov-07 18:32N 34°06' W 120°51'612.1
2018-Nov-07 18:02N 34°10' W 120°56'510.6
2018-Nov-07 17:32N 34°15' W 120°59'510.5
2018-Nov-07 17:02N 34°20' W 121°01'510.2
2018-Nov-07 16:32N 34°24' W 121°04'510.5
2018-Nov-07 16:02N 34°29' W 121°07'510.9
2018-Nov-07 15:32N 34°34' W 121°10'611.1
2018-Nov-07 15:02N 34°39' W 121°13'611.1
2018-Nov-07 14:32N 34°44' W 121°15'510.7
2018-Nov-07 14:02N 34°49' W 121°18'510.4
2018-Nov-07 13:32N 34°53' W 121°21'510.4
2018-Nov-07 13:02N 34°58' W 121°24'510.3
2018-Nov-07 12:32N 35°03' W 121°26'511.0
2018-Nov-07 12:02N 35°08' W 121°29'511.0
2018-Nov-07 11:32N 35°13' W 121°32'510.5
2018-Nov-07 11:02N 35°17' W 121°35'510.5
2018-Nov-07 10:32N 35°22' W 121°38'611.1
2018-Nov-07 10:02N 35°27' W 121°41'510.9
2018-Nov-07 09:32N 35°32' W 121°44'710.9
2018-Nov-07 08:52N 35°39' W 121°47'411.0
2018-Nov-07 08:32N 35°42' W 121°49'510.8
2018-Nov-07 08:02N 35°47' W 121°52'510.9
2018-Nov-07 07:32N 35°52' W 121°53'611.7
2018-Nov-07 07:02N 35°58' W 121°55'611.8
2018-Nov-07 06:32N 36°03' W 121°57'510.5
2018-Nov-07 06:02N 36°09' W 121°59'510.1
2018-Nov-07 05:32N 36°14' W 121°60'510.1
2018-Nov-07 05:02N 36°18' W 122°01'610.9
2018-Nov-07 04:32N 36°24' W 122°03'31 2.0
2018-Nov-06 12:44N 36°54' W 122°14'415.9
2018-Nov-06 12:30N 36°56' W 122°17'716.1
2018-Nov-06 12:05N 37°01' W 122°23'015.2
2018-Nov-06 12:04N 37°02' W 122°23'116.3
2018-Nov-06 12:01N 37°02' W 122°24'816.0
2018-Nov-06 11:30N 37°08' W 122°31'716.1
2018-Nov-06 11:04N 37°13' W 122°37'015.4
2018-Nov-06 11:03N 37°13' W 122°37'115.7
2018-Nov-06 11:00N 37°14' W 122°38'216.2
2018-Nov-06 10:52N 37°15' W 122°40'513.7
2018-Nov-06 10:31N 37°19' W 122°44'510.6
2018-Nov-06 10:03N 37°24' W 122°44'046.3
2018-Nov-06 10:03N 37°24' W 122°44'0 8.8
2018-Nov-06 10:01N 37°25' W 122°44'032.3
2018-Nov-06 10:00N 37°25' W 122°44'510.1
2018-Nov-06 09:30N 37°30' W 122°44'045.9
2018-Nov-06 09:30N 37°30' W 122°44'510.2
2018-Nov-06 09:03N 37°34' W 122°44'110.3
2018-Nov-06 09:00N 37°35' W 122°44'510.8
2018-Nov-06 08:30N 37°40' W 122°43'613.0
2018-Nov-06 08:03N 37°45' W 122°40'118.4
2018-Nov-06 08:00N 37°46' W 122°39'817.1
2018-Nov-06 07:33N 37°49' W 122°30'112.8
2018-Nov-06 07:30N 37°49' W 122°29'021.8
2018-Nov-06 07:30N 37°49' W 122°29'4 8.9
2018-Nov-06 07:03N 37°48' W 122°24'0 1.0
2018-Nov-06 07:00N 37°48' W 122°24'0 0.0
2018-Nov-06 06:30N 37°48' W 122°24'0 0.0
2018-Nov-06 06:03N 37°48' W 122°24'0 0.0
2018-Nov-06 06:00N 37°48' W 122°24'0 0.0
2018-Nov-06 05:29N 37°48' W 122°24'0 0.0
2018-Nov-06 04:56N 37°48' W 122°24'0 0.0
2018-Nov-06 04:26N 37°48' W 122°24'0 0.0
2018-Nov-06 04:02N 37°48' W 122°24'0 0.0
2018-Nov-06 03:59N 37°48' W 122°24'0 0.0
2018-Nov-06 03:29N 37°48' W 122°24'0 0.0
2018-Nov-06 03:01N 37°48' W 122°24'0 0.0
2018-Nov-06 02:58N 37°48' W 122°24'0 0.0
2018-Nov-06 02:28N 37°48' W 122°24'0 0.0
2018-Nov-06 02:01N 37°48' W 122°24'0 0.0
2018-Nov-06 01:58N 37°48' W 122°24'0 0.0
2018-Nov-06 01:25N 37°48' W 122°24'0 0.0
2018-Nov-06 01:00N 37°48' W 122°24'0 0.0
2018-Nov-05 23:30N 37°48' W 122°24'0 0.0
2018-Nov-05 23:03N 37°48' W 122°24'0 0.0
2018-Nov-05 23:00N 37°48' W 122°24'0 0.0
2018-Nov-05 22:29N 37°48' W 122°24'0 0.0
2018-Nov-05 22:02N 37°48' W 122°24'0 0.0
2018-Nov-05 21:59N 37°48' W 122°24'0 0.0
2018-Nov-05 21:26N 37°48' W 122°24'0 0.0
2018-Nov-05 21:02N 37°48' W 122°24'0 0.0
2018-Nov-05 20:59N 37°48' W 122°24'0 0.0
2018-Nov-05 20:29N 37°48' W 122°24'0 0.0
2018-Nov-05 20:01N 37°48' W 122°24'0 0.0
2018-Nov-05 19:58N 37°48' W 122°24'0 0.0
2018-Nov-05 19:28N 37°48' W 122°24'0 0.0
2018-Nov-05 19:01N 37°48' W 122°24'0 0.0
2018-Nov-05 18:58N 37°48' W 122°24'0 0.0
2018-Nov-05 18:28N 37°48' W 122°24'0 0.0
2018-Nov-05 18:03N 37°48' W 122°24'0 0.0
2018-Nov-05 18:00N 37°48' W 122°24'0 0.0
2018-Nov-05 17:30N 37°48' W 122°24'0 0.0
2018-Nov-05 17:03N 37°48' W 122°24'0 0.0
2018-Nov-05 17:00N 37°48' W 122°24'0 0.0
2018-Nov-05 16:30N 37°48' W 122°24'0 0.0
2018-Nov-05 16:03N 37°48' W 122°24'0 0.0
2018-Nov-05 16:00N 37°48' W 122°24'0 0.0
2018-Nov-05 15:29N 37°48' W 122°24'0 0.0
2018-Nov-05 15:02N 37°48' W 122°24'0 0.0
2018-Nov-05 14:59N 37°48' W 122°24'0 0.1
2018-Nov-05 14:30N 37°48' W 122°24'1 1.2
2018-Nov-05 14:03N 37°49' W 122°24'0 6.8
2018-Nov-05 14:00N 37°49' W 122°25'1313.6
2018-Nov-05 13:03N 37°45' W 122°40'110.8
2018-Nov-05 13:00N 37°44' W 122°40'510.7
2018-Nov-05 12:30N 37°39' W 122°40'4 9.8
2018-Nov-05 12:03N 37°34' W 122°40'110.4
2018-Nov-05 12:00N 37°34' W 122°40'510.2
2018-Nov-05 11:30N 37°29' W 122°40'4 9.9
2018-Nov-05 11:03N 37°24' W 122°40'0 7.6
2018-Nov-05 11:00N 37°24' W 122°40'5 9.6
2018-Nov-05 10:30N 37°19' W 122°40'4 9.9
2018-Nov-05 10:03N 37°15' W 122°42'110.2
2018-Nov-05 10:00N 37°14' W 122°42'510.5
2018-Nov-05 09:30N 37°10' W 122°45'510.3
2018-Nov-05 09:03N 37°05' W 122°47'110.1
2018-Nov-05 09:00N 37°05' W 122°47'510.5
2018-Nov-05 08:30N 37°00' W 122°50'510.3
2018-Nov-05 08:03N 36°56' W 122°52'110.6
2018-Nov-05 08:00N 36°55' W 122°52'610.5
2018-Nov-05 07:24N 36°49' W 122°53'410.4
2018-Nov-05 07:03N 36°45' W 122°52'210.4
2018-Nov-05 06:53N 36°44' W 122°52'410.4
2018-Nov-05 06:28N 36°39' W 122°52'510.6
2018-Nov-05 06:00N 36°34' W 122°50'1110.2
2018-Nov-05 04:54N 36°24' W 122°46'410.4
2018-Nov-05 04:30N 36°20' W 122°43'510.4
2018-Nov-05 04:03N 36°17' W 122°39'110.5
2018-Nov-05 04:00N 36°16' W 122°39'5 9.8
2018-Nov-05 03:30N 36°12' W 122°35'4 9.8
2018-Nov-05 03:03N 36°09' W 122°32'1 9.8
2018-Nov-05 03:00N 36°08' W 122°31'510.3
2018-Nov-05 02:30N 36°04' W 122°28'510.5
2018-Nov-05 02:03N 36°01' W 122°24'110.7
2018-Nov-05 02:00N 36°00' W 122°24'510.3
2018-Nov-05 01:30N 35°56' W 122°20'510.1
2018-Nov-05 01:03N 35°53' W 122°16'0 9.7
2018-Nov-05 01:00N 35°52' W 122°16'510.5
2018-Nov-05 00:30N 35°48' W 122°12'510.5
2018-Nov-05 00:03N 35°45' W 122°08'010.5
2018-Nov-05 00:00N 35°44' W 122°08'510.2
2018-Nov-04 23:30N 35°40' W 122°04'510.3
2018-Nov-04 23:03N 35°36' W 122°00'0 9.8
2018-Nov-04 23:00N 35°36' W 121°60'510.2
2018-Nov-04 22:30N 35°32' W 121°56'510.3
2018-Nov-04 22:03N 35°29' W 121°52'110.2
2018-Nov-04 22:00N 35°28' W 121°52'510.1
2018-Nov-04 21:30N 35°24' W 121°48'510.0
2018-Nov-04 21:03N 35°21' W 121°45'1 9.5
2018-Nov-04 21:00N 35°20' W 121°44'510.1
2018-Nov-04 20:30N 35°16' W 121°41'510.4
2018-Nov-04 20:03N 35°13' W 121°37'110.5
2018-Nov-04 20:00N 35°12' W 121°37'510.1
2018-Nov-04 19:30N 35°08' W 121°33'4 9.7
2018-Nov-04 19:03N 35°05' W 121°29'1 9.9
2018-Nov-04 19:00N 35°04' W 121°29'5 9.9
2018-Nov-04 18:30N 35°01' W 121°25'4 9.8
2018-Nov-04 18:03N 34°57' W 121°22'0 9.6
2018-Nov-04 18:00N 34°57' W 121°22'9 9.5
2018-Nov-04 17:03N 34°50' W 121°15'0 8.6
2018-Nov-04 17:00N 34°49' W 121°14'5 9.6
2018-Nov-04 16:30N 34°46' W 121°11'4 9.9
2018-Nov-04 16:03N 34°42' W 121°07'0 9.6
2018-Nov-04 16:00N 34°42' W 121°07'5 9.7
2018-Nov-04 15:30N 34°38' W 121°03'510.0
2018-Nov-04 15:03N 34°34' W 121°00'112.3
2018-Nov-04 15:00N 34°34' W 120°60'5 9.6
2018-Nov-04 14:30N 34°30' W 120°56'4 9.7
2018-Nov-04 14:03N 34°27' W 120°52'010.2
2018-Nov-04 14:00N 34°27' W 120°52'510.2
2018-Nov-04 13:29N 34°25' W 120°46'5 9.5
2018-Nov-04 13:00N 34°24' W 120°40'5 9.5
2018-Nov-04 12:30N 34°23' W 120°35'5 9.9
2018-Nov-04 12:01N 34°21' W 120°29'012.2
2018-Nov-04 12:00N 34°21' W 120°29'510.2
2018-Nov-04 11:30N 34°20' W 120°23'510.3
2018-Nov-04 11:02N 34°19' W 120°18'0 9.9
2018-Nov-04 11:00N 34°18' W 120°17'510.3
2018-Nov-04 10:30N 34°17' W 120°11'510.5
2018-Nov-04 10:03N 34°16' W 120°06'110.3
2018-Nov-04 10:00N 34°16' W 120°05'510.3
2018-Nov-04 09:30N 34°14' W 119°59'4 9.8
2018-Nov-04 09:03N 34°13' W 119°54'010.4
2018-Nov-04 09:00N 34°13' W 119°53'510.1
2018-Nov-04 08:30N 34°12' W 119°47'510.3
2018-Nov-04 08:03N 34°10' W 119°42'0 9.4
2018-Nov-04 08:00N 34°10' W 119°42'510.0
2018-Nov-04 07:30N 34°09' W 119°36'510.4
2018-Nov-04 07:03N 34°07' W 119°30'0 9.5
2018-Nov-04 07:00N 34°07' W 119°30'510.2
2018-Nov-04 06:30N 34°06' W 119°24'510.3
2018-Nov-04 06:03N 34°05' W 119°18'110.4
2018-Nov-04 06:00N 34°05' W 119°18'510.0
2018-Nov-04 05:30N 34°03' W 119°12'4 9.9
2018-Nov-04 05:03N 34°01' W 119°08'1 9.1
2018-Nov-04 05:00N 34°00' W 119°07'5 9.8
2018-Nov-04 04:30N 33°58' W 119°02'510.2
2018-Nov-04 04:03N 33°56' W 118°57'110.3
2018-Nov-04 04:00N 33°55' W 118°57'510.3
2018-Nov-04 03:30N 33°53' W 118°51'510.4
2018-Nov-04 03:03N 33°51' W 118°46'0 9.8
2018-Nov-04 03:00N 33°50' W 118°46'510.2
2018-Nov-04 02:30N 33°48' W 118°41'510.0
2018-Nov-04 02:03N 33°45' W 118°36'110.3
2018-Nov-04 02:00N 33°45' W 118°36'510.0
2018-Nov-04 01:30N 33°43' W 118°30'510.3
2018-Nov-04 01:03N 33°40' W 118°25'010.0
2018-Nov-04 01:00N 33°40' W 118°25'510.2
2018-Nov-04 00:30N 33°38' W 118°19'4 9.0
2018-Nov-04 00:03N 33°41' W 118°15'110.8
2018-Nov-04 00:00N 33°41' W 118°15'3 6.9
2018-Nov-03 23:30N 33°45' W 118°17'0 0.9
2018-Nov-03 23:03N 33°45' W 118°17'0 0.0
2018-Nov-03 22:57N 33°45' W 118°17'0 0.0
2018-Nov-03 22:29N 33°45' W 118°17'0 0.0
2018-Nov-03 20:28N 33°45' W 118°17'0 0.0
2018-Nov-03 20:01N 33°45' W 118°17'0 0.0
2018-Nov-03 19:58N 33°45' W 118°17'0 0.0
2018-Nov-03 19:28N 33°45' W 118°17'0 0.0
2018-Nov-03 19:01N 33°45' W 118°17'0 0.0
2018-Nov-03 18:58N 33°45' W 118°17'0 0.0
2018-Nov-03 18:28N 33°45' W 118°17'0 0.0
2018-Nov-03 18:03N 33°45' W 118°17'0 0.0
2018-Nov-03 18:00N 33°45' W 118°17'0 0.0
2018-Nov-03 17:30N 33°45' W 118°17'0 0.0
2018-Nov-03 17:03N 33°45' W 118°17'0 0.0
2018-Nov-03 17:00N 33°45' W 118°17'0 0.0
2018-Nov-03 16:30N 33°45' W 118°17'0 0.0
2018-Nov-03 16:03N 33°45' W 118°17'0 0.0
2018-Nov-03 15:57N 33°45' W 118°17'0 0.0
2018-Nov-03 15:29N 33°45' W 118°17'0 0.0
2018-Nov-03 15:02N 33°45' W 118°17'0 0.0
2018-Nov-03 14:59N 33°45' W 118°17'0 0.0
2018-Nov-03 14:29N 33°45' W 118°17'0 0.0
2018-Nov-03 13:59N 33°45' W 118°17'0 0.0
2018-Nov-03 13:28N 33°45' W 118°17'0 0.0
2018-Nov-03 13:01N 33°45' W 118°17'0 0.0
2018-Nov-03 12:58N 33°45' W 118°17'0 0.1
2018-Nov-03 12:30N 33°45' W 118°17'2 3.4
2018-Nov-03 12:03N 33°43' W 118°16'0 6.5
2018-Nov-03 12:00N 33°43' W 118°16'4 8.7
2018-Nov-03 11:30N 33°40' W 118°13'511.9
2018-Nov-03 11:03N 33°35' W 118°09'111.7
2018-Nov-03 11:00N 33°35' W 118°09'612.1
2018-Nov-03 10:30N 33°29' W 118°07'512.2
2018-Nov-03 10:03N 33°24' W 118°04'112.9
2018-Nov-03 10:00N 33°23' W 118°04'612.4
2018-Nov-03 09:30N 33°17' W 118°02'511.5
2018-Nov-03 09:03N 33°13' W 117°59'112.0
2018-Nov-03 09:00N 33°12' W 117°59'815.7
2018-Nov-03 08:30N 33°05' W 117°56'818.0
2018-Nov-03 08:04N 32°57' W 117°53'117.9
2018-Nov-03 08:00N 32°56' W 117°52'918.1
2018-Nov-03 07:30N 32°48' W 117°49'818.1
2018-Nov-03 07:03N 32°40' W 117°45'117.9
2018-Nov-03 07:00N 32°39' W 117°45'917.8
2018-Nov-03 06:30N 32°31' W 117°41'817.6
2018-Nov-03 06:03N 32°23' W 117°38'117.5
2018-Nov-03 06:00N 32°23' W 117°38'917.5
2018-Nov-03 05:31N 32°14' W 117°34'817.8
2018-Nov-03 05:03N 32°07' W 117°31'118.2
2018-Nov-03 05:00N 32°06' W 117°30'918.3
2018-Nov-03 04:30N 31°57' W 117°27'818.4
2018-Nov-03 04:03N 31°50' W 117°23'118.2
2018-Nov-03 04:00N 31°49' W 117°23'918.5
2018-Nov-03 03:30N 31°40' W 117°19'818.6
2018-Nov-03 03:04N 31°32' W 117°16'118.5
2018-Nov-03 03:00N 31°31' W 117°16'918.4
2018-Nov-03 02:30N 31°23' W 117°12'818.5
2018-Nov-03 02:04N 31°15' W 117°08'118.3
2018-Nov-03 02:00N 31°14' W 117°08'918.2
2018-Nov-03 01:30N 31°05' W 117°04'818.3
2018-Nov-03 01:04N 30°58' W 117°01'118.2
2018-Nov-03 01:00N 30°57' W 117°01'  
Track history (hours):
 
Tides and Currents Weather Stations Pressure Air Temp Water Temp Dewpoint Dewpoint Depression Visibility Wind Speed Wind Dir Waves Ship Positions

Ruby Princess

Last reported at 2018-Nov-12 06:00 UTC. Time now 2018-Nov-13 06:46 UTC.
Position N 36°36' W 122°48'.

Length 289 m; draft 8.7 m.

Type: Ship. MMSI: 310567000.

Wind from 040 at 11 knots

Barometer 1022.4 mb
Air temperature 14.0 ° C
Visibility: greater than 5.4 NM
Dewpoint 13.1 ° C
Water temperature 14.0 ° C

Date/timePositionNaut miles runAvg speedWind from/ knotsBaromVisibWave heightAir tempDewpointWater temp
2018-Nov-12 06:00N 36°36' W 122°48'11810.7 040 / 111022.4 5.4 14.013.114.0
2018-Nov-11 19:00N 35°00' W 121°24'162 9.8 080 / 71018.3 5.4 16.014.316.0
2018-Nov-11 02:32N 33°43' W 118°31'510.6
2018-Nov-11 02:03N 33°41' W 118°26'510.2
2018-Nov-11 01:33N 33°38' W 118°20'510.1
2018-Nov-11 01:03N 33°41' W 118°15'3 6.5
2018-Nov-11 00:32N 33°44' W 118°17'1 1.4
2018-Nov-11 00:01N 33°45' W 118°17'0 0.0
2018-Nov-10 23:31N 33°45' W 118°17'0 0.3
2018-Nov-10 23:07N 33°45' W 118°17'0 0.9
2018-Nov-10 23:00N 33°45' W 118°17'0 1.2
2018-Nov-10 22:55N 33°45' W 118°17'0 0.3
2018-Nov-10 22:30N 33°45' W 118°17'0 0.0
2018-Nov-10 22:00N 33°45' W 118°17'0 0.0
2018-Nov-10 21:30N 33°45' W 118°17'0 0.0
2018-Nov-10 21:00N 33°45' W 118°17'0 0.0
2018-Nov-10 20:32N 33°45' W 118°17'0 0.0
2018-Nov-10 20:02N 33°45' W 118°17'0 0.0
2018-Nov-10 19:32N 33°45' W 118°17'0 0.0
2018-Nov-10 19:02N 33°45' W 118°17'0 0.0
2018-Nov-10 18:31N 33°45' W 118°17'0 0.0
2018-Nov-10 18:01N 33°45' W 118°17'0 0.0
2018-Nov-10 17:31N 33°45' W 118°17'0 0.0
2018-Nov-10 17:01N 33°45' W 118°17'0 0.0
2018-Nov-10 16:31N 33°45' W 118°17'0 0.0
2018-Nov-10 16:01N 33°45' W 118°17'0 0.0
2018-Nov-10 15:31N 33°45' W 118°17'0 0.0
2018-Nov-10 15:01N 33°45' W 118°17'0 0.0
2018-Nov-10 14:30N 33°45' W 118°17'0 0.0
2018-Nov-10 14:03N 33°45' W 118°17'1 1.8
2018-Nov-10 13:32N 33°44' W 118°17'4 7.4
2018-Nov-10 13:03N 33°41' W 118°14'510.5
2018-Nov-10 12:32N 33°37' W 118°10'611.9
2018-Nov-10 12:03N 33°31' W 118°07'612.0
2018-Nov-10 11:32N 33°26' W 118°05'612.4
2018-Nov-10 11:03N 33°20' W 118°03'611.9
2018-Nov-10 10:33N 33°14' W 118°00'713.4
2018-Nov-10 10:02N 33°08' W 117°57'713.5
2018-Nov-10 09:32N 33°02' W 117°55'613.1
2018-Nov-10 09:03N 32°55' W 117°52'612.9
2018-Nov-10 08:32N 32°49' W 117°49'612.5
2018-Nov-10 08:02N 32°44' W 117°45'612.6
2018-Nov-10 07:32N 32°39' W 117°41'612.6
2018-Nov-10 07:02N 32°33' W 117°41'612.7
2018-Nov-10 06:33N 32°27' W 117°38'612.8
2018-Nov-10 06:02N 32°21' W 117°34'713.3
2018-Nov-10 05:33N 32°15' W 117°30'26 1.5
2018-Nov-09 11:46N 31°53' W 117°14'210.9
2018-Nov-09 11:32N 31°55' W 117°16'510.9
2018-Nov-09 11:02N 31°60' W 117°19'510.9
2018-Nov-09 10:32N 32°05' W 117°22'611.3
2018-Nov-09 10:02N 32°10' W 117°26'611.7
2018-Nov-09 09:32N 32°15' W 117°29'611.3
2018-Nov-09 09:02N 32°20' W 117°32'510.4
2018-Nov-09 08:32N 32°24' W 117°29'611.1
2018-Nov-09 08:02N 32°28' W 117°25'611.4
2018-Nov-09 07:32N 32°32' W 117°20'611.8
2018-Nov-09 07:02N 32°37' W 117°15'510.5
2018-Nov-09 06:32N 32°42' W 117°14'3 6.0
2018-Nov-09 06:02N 32°43' W 117°11'0 0.3
2018-Nov-09 05:32N 32°43' W 117°10'0 0.0
2018-Nov-09 05:02N 32°43' W 117°10'0 0.0
2018-Nov-09 04:29N 32°43' W 117°10'0 0.0
2018-Nov-09 04:01N 32°43' W 117°10'0 0.0
2018-Nov-09 03:31N 32°43' W 117°10'0 0.0
2018-Nov-09 02:58N 32°43' W 117°10'0 0.0
2018-Nov-09 02:31N 32°43' W 117°10'0 0.0
2018-Nov-09 01:58N 32°43' W 117°10'0 0.0
2018-Nov-09 01:30N 32°43' W 117°10'0 0.0
2018-Nov-09 01:00N 32°43' W 117°10'0 0.0
2018-Nov-09 00:15N 32°43' W 117°10'0 0.0
2018-Nov-08 23:57N 32°43' W 117°10'0 0.0
2018-Nov-08 23:14N 32°43' W 117°10'0 0.0
2018-Nov-08 23:02N 32°43' W 117°10'0 0.0
2018-Nov-08 22:32N 32°43' W 117°10'0 0.0
2018-Nov-08 22:02N 32°43' W 117°10'0 0.0
2018-Nov-08 21:32N 32°43' W 117°10'0 0.0
2018-Nov-08 21:01N 32°43' W 117°10'0 0.0
2018-Nov-08 20:31N 32°43' W 117°10'0 0.0
2018-Nov-08 20:01N 32°43' W 117°10'0 0.0
2018-Nov-08 19:31N 32°43' W 117°10'0 0.0
2018-Nov-08 18:58N 32°43' W 117°10'0 0.0
2018-Nov-08 18:30N 32°43' W 117°10'0 0.0
2018-Nov-08 18:00N 32°43' W 117°10'0 0.0
2018-Nov-08 17:30N 32°43' W 117°10'0 0.0
2018-Nov-08 16:54N 32°43' W 117°10'0 0.0
2018-Nov-08 16:32N 32°43' W 117°10'0 0.0
2018-Nov-08 15:59N 32°43' W 117°10'0 0.0
2018-Nov-08 15:33N 32°43' W 117°10'2 4.8
2018-Nov-08 15:02N 32°43' W 117°13'511.0
2018-Nov-08 14:32N 32°37' W 117°14'5 9.3
2018-Nov-08 14:03N 32°36' W 117°19'510.5
2018-Nov-08 13:32N 32°35' W 117°25'5 9.9
2018-Nov-08 13:02N 32°34' W 117°31'5 9.5
2018-Nov-08 12:33N 32°34' W 117°36'5 9.6
2018-Nov-08 12:02N 32°34' W 117°42'5 9.6
2018-Nov-08 11:32N 32°34' W 117°48'5 9.3
2018-Nov-08 11:02N 32°34' W 117°53'5 9.5
2018-Nov-08 10:32N 32°34' W 117°59'5 9.2
2018-Nov-08 10:02N 32°34' W 118°05'5 9.5
2018-Nov-08 09:32N 32°34' W 118°10'5 9.8
2018-Nov-08 09:02N 32°34' W 118°16'5 9.8
2018-Nov-08 08:32N 32°34' W 118°22'510.1
2018-Nov-08 08:02N 32°34' W 118°28'510.2
2018-Nov-08 07:33N 32°35' W 118°34'510.1
2018-Nov-08 07:02N 32°38' W 118°39'510.0
2018-Nov-08 06:32N 32°40' W 118°44'510.0
2018-Nov-08 06:03N 32°44' W 118°48'510.0
2018-Nov-08 05:32N 32°48' W 118°51'510.4
2018-Nov-08 05:02N 32°53' W 118°54'610.2
2018-Nov-08 04:24N 32°58' W 118°58'410.1
2018-Nov-08 04:02N 33°01' W 119°00'5 9.8
2018-Nov-08 03:31N 33°06' W 119°04'5 9.7
2018-Nov-08 02:59N 33°10' W 119°07'510.1
2018-Nov-08 02:32N 33°14' W 119°10'510.1
2018-Nov-08 02:02N 33°18' W 119°13'611.6
2018-Nov-08 01:32N 33°23' W 119°17'611.5
2018-Nov-08 01:02N 33°28' W 119°20'411.1
2018-Nov-08 00:43N 33°31' W 119°23'210.1
2018-Nov-08 00:32N 33°32' W 119°24'110.0
2018-Nov-08 00:28N 33°33' W 119°24'4 9.9
2018-Nov-08 00:02N 33°35' W 119°29'510.2
2018-Nov-07 23:32N 33°37' W 119°35'510.4
2018-Nov-07 23:02N 33°38' W 119°40'510.6
2018-Nov-07 22:32N 33°40' W 119°47'612.0
2018-Nov-07 22:02N 33°42' W 119°53'816.1
2018-Nov-07 21:31N 33°45' W 120°03'715.7
2018-Nov-07 21:02N 33°47' W 120°11'815.7
2018-Nov-07 20:32N 33°49' W 120°21'815.5
2018-Nov-07 20:02N 33°52' W 120°29'815.1
2018-Nov-07 19:32N 33°56' W 120°37'715.0
2018-Nov-07 19:03N 34°01' W 120°44'815.3
2018-Nov-07 18:32N 34°06' W 120°51'612.1
2018-Nov-07 18:02N 34°10' W 120°56'510.6
2018-Nov-07 17:32N 34°15' W 120°59'510.5
2018-Nov-07 17:02N 34°20' W 121°01'510.2
2018-Nov-07 16:32N 34°24' W 121°04'510.5
2018-Nov-07 16:02N 34°29' W 121°07'510.9
2018-Nov-07 15:32N 34°34' W 121°10'611.1
2018-Nov-07 15:02N 34°39' W 121°13'611.1
2018-Nov-07 14:32N 34°44' W 121°15'510.7
2018-Nov-07 14:02N 34°49' W 121°18'510.4
2018-Nov-07 13:32N 34°53' W 121°21'510.4
2018-Nov-07 13:02N 34°58' W 121°24'510.3
2018-Nov-07 12:32N 35°03' W 121°26'511.0
2018-Nov-07 12:02N 35°08' W 121°29'511.0
2018-Nov-07 11:32N 35°13' W 121°32'510.5
2018-Nov-07 11:02N 35°17' W 121°35'510.5
2018-Nov-07 10:32N 35°22' W 121°38'611.1
2018-Nov-07 10:02N 35°27' W 121°41'510.9
2018-Nov-07 09:32N 35°32' W 121°44'710.9
2018-Nov-07 08:52N 35°39' W 121°47'411.0
2018-Nov-07 08:32N 35°42' W 121°49'510.8
2018-Nov-07 08:02N 35°47' W 121°52'510.9
2018-Nov-07 07:32N 35°52' W 121°53'611.7
2018-Nov-07 07:02N 35°58' W 121°55'611.8
2018-Nov-07 06:32N 36°03' W 121°57'510.5
2018-Nov-07 06:02N 36°09' W 121°59'510.1
2018-Nov-07 05:32N 36°14' W 121°60'510.1
2018-Nov-07 05:02N 36°18' W 122°01'610.9
2018-Nov-07 04:32N 36°24' W 122°03'31 2.0
2018-Nov-06 12:44N 36°54' W 122°14'415.9
2018-Nov-06 12:30N 36°56' W 122°17'716.1
2018-Nov-06 12:05N 37°01' W 122°23'015.2
2018-Nov-06 12:04N 37°02' W 122°23'116.3
2018-Nov-06 12:01N 37°02' W 122°24'816.0
2018-Nov-06 11:30N 37°08' W 122°31'716.1
2018-Nov-06 11:04N 37°13' W 122°37'015.4
2018-Nov-06 11:03N 37°13' W 122°37'115.7
2018-Nov-06 11:00N 37°14' W 122°38'216.2
2018-Nov-06 10:52N 37°15' W 122°40'513.7
2018-Nov-06 10:31N 37°19' W 122°44'510.6
2018-Nov-06 10:03N 37°24' W 122°44'046.3
2018-Nov-06 10:03N 37°24' W 122°44'0 8.8
2018-Nov-06 10:01N 37°25' W 122°44'032.3
2018-Nov-06 10:00N 37°25' W 122°44'510.1
2018-Nov-06 09:30N 37°30' W 122°44'045.9
2018-Nov-06 09:30N 37°30' W 122°44'510.2
2018-Nov-06 09:03N 37°34' W 122°44'110.3
2018-Nov-06 09:00N 37°35' W 122°44'510.8
2018-Nov-06 08:30N 37°40' W 122°43'613.0
2018-Nov-06 08:03N 37°45' W 122°40'118.4
2018-Nov-06 08:00N 37°46' W 122°39'817.1
2018-Nov-06 07:33N 37°49' W 122°30'112.8
2018-Nov-06 07:30N 37°49' W 122°29'021.8
2018-Nov-06 07:30N 37°49' W 122°29'4 8.9
2018-Nov-06 07:03N 37°48' W 122°24'0 1.0
2018-Nov-06 07:00N 37°48' W 122°24'0 0.0
2018-Nov-06 06:30N 37°48' W 122°24'0 0.0
2018-Nov-06 06:03N 37°48' W 122°24'0 0.0
2018-Nov-06 06:00N 37°48' W 122°24'0 0.0
2018-Nov-06 05:29N 37°48' W 122°24'0 0.0
2018-Nov-06 04:56N 37°48' W 122°24'0 0.0
2018-Nov-06 04:26N 37°48' W 122°24'0 0.0
2018-Nov-06 04:02N 37°48' W 122°24'0 0.0
2018-Nov-06 03:59N 37°48' W 122°24'0 0.0
2018-Nov-06 03:29N 37°48' W 122°24'0 0.0
2018-Nov-06 03:01N 37°48' W 122°24'0 0.0
2018-Nov-06 02:58N 37°48' W 122°24'0 0.0
2018-Nov-06 02:28N 37°48' W 122°24'0 0.0
2018-Nov-06 02:01N 37°48' W 122°24'0 0.0
2018-Nov-06 01:58N 37°48' W 122°24'0 0.0
2018-Nov-06 01:25N 37°48' W 122°24'0 0.0
2018-Nov-06 01:00N 37°48' W 122°24'0 0.0
2018-Nov-05 23:30N 37°48' W 122°24'0 0.0
2018-Nov-05 23:03N 37°48' W 122°24'0 0.0
2018-Nov-05 23:00N 37°48' W 122°24'0 0.0
2018-Nov-05 22:29N 37°48' W 122°24'0 0.0
2018-Nov-05 22:02N 37°48' W 122°24'0 0.0
2018-Nov-05 21:59N 37°48' W 122°24'0 0.0
2018-Nov-05 21:26N 37°48' W 122°24'0 0.0
2018-Nov-05 21:02N 37°48' W 122°24'0 0.0
2018-Nov-05 20:59N 37°48' W 122°24'0 0.0
2018-Nov-05 20:29N 37°48' W 122°24'0 0.0
2018-Nov-05 20:01N 37°48' W 122°24'0 0.0
2018-Nov-05 19:58N 37°48' W 122°24'0 0.0
2018-Nov-05 19:28N 37°48' W 122°24'0 0.0
2018-Nov-05 19:01N 37°48' W 122°24'0 0.0
2018-Nov-05 18:58N 37°48' W 122°24'0 0.0
2018-Nov-05 18:28N 37°48' W 122°24'0 0.0
2018-Nov-05 18:03N 37°48' W 122°24'0 0.0
2018-Nov-05 18:00N 37°48' W 122°24'0 0.0
2018-Nov-05 17:30N 37°48' W 122°24'0 0.0
2018-Nov-05 17:03N 37°48' W 122°24'0 0.0
2018-Nov-05 17:00N 37°48' W 122°24'0 0.0
2018-Nov-05 16:30N 37°48' W 122°24'0 0.0
2018-Nov-05 16:03N 37°48' W 122°24'0 0.0
2018-Nov-05 16:00N 37°48' W 122°24'0 0.0
2018-Nov-05 15:29N 37°48' W 122°24'0 0.0
2018-Nov-05 15:02N 37°48' W 122°24'0 0.0
2018-Nov-05 14:59N 37°48' W 122°24'0 0.1
2018-Nov-05 14:30N 37°48' W 122°24'1 1.2
2018-Nov-05 14:03N 37°49' W 122°24'0 6.8
2018-Nov-05 14:00N 37°49' W 122°25'1313.6
2018-Nov-05 13:03N 37°45' W 122°40'110.8
2018-Nov-05 13:00N 37°44' W 122°40'510.7
2018-Nov-05 12:30N 37°39' W 122°40'4 9.8
2018-Nov-05 12:03N 37°34' W 122°40'110.4
2018-Nov-05 12:00N 37°34' W 122°40'510.2
2018-Nov-05 11:30N 37°29' W 122°40'4 9.9
2018-Nov-05 11:03N 37°24' W 122°40'0 7.6
2018-Nov-05 11:00N 37°24' W 122°40'5 9.6
2018-Nov-05 10:30N 37°19' W 122°40'4 9.9
2018-Nov-05 10:03N 37°15' W 122°42'110.2
2018-Nov-05 10:00N 37°14' W 122°42'510.5
2018-Nov-05 09:30N 37°10' W 122°45'510.3
2018-Nov-05 09:03N 37°05' W 122°47'110.1
2018-Nov-05 09:00N 37°05' W 122°47'510.5
2018-Nov-05 08:30N 37°00' W 122°50'510.3
2018-Nov-05 08:03N 36°56' W 122°52'110.6
2018-Nov-05 08:00N 36°55' W 122°52'610.5
2018-Nov-05 07:24N 36°49' W 122°53'410.4
2018-Nov-05 07:03N 36°45' W 122°52'210.4
2018-Nov-05 06:53N 36°44' W 122°52'410.4
2018-Nov-05 06:28N 36°39' W 122°52'510.6
2018-Nov-05 06:00N 36°34' W 122°50'1110.2
2018-Nov-05 04:54N 36°24' W 122°46'410.4
2018-Nov-05 04:30N 36°20' W 122°43'510.4
2018-Nov-05 04:03N 36°17' W 122°39'110.5
2018-Nov-05 04:00N 36°16' W 122°39'5 9.8
2018-Nov-05 03:30N 36°12' W 122°35'4 9.8
2018-Nov-05 03:03N 36°09' W 122°32'1 9.8
2018-Nov-05 03:00N 36°08' W 122°31'510.3
2018-Nov-05 02:30N 36°04' W 122°28'510.5
2018-Nov-05 02:03N 36°01' W 122°24'110.7
2018-Nov-05 02:00N 36°00' W 122°24'510.3
2018-Nov-05 01:30N 35°56' W 122°20'510.1
2018-Nov-05 01:03N 35°53' W 122°16'0 9.7
2018-Nov-05 01:00N 35°52' W 122°16'510.5
2018-Nov-05 00:30N 35°48' W 122°12'510.5
2018-Nov-05 00:03N 35°45' W 122°08'010.5
2018-Nov-05 00:00N 35°44' W 122°08'510.2
2018-Nov-04 23:30N 35°40' W 122°04'510.3
2018-Nov-04 23:03N 35°36' W 122°00'0 9.8
2018-Nov-04 23:00N 35°36' W 121°60'510.2
2018-Nov-04 22:30N 35°32' W 121°56'510.3
2018-Nov-04 22:03N 35°29' W 121°52'110.2
2018-Nov-04 22:00N 35°28' W 121°52'510.1
2018-Nov-04 21:30N 35°24' W 121°48'510.0
2018-Nov-04 21:03N 35°21' W 121°45'1 9.5
2018-Nov-04 21:00N 35°20' W 121°44'510.1
2018-Nov-04 20:30N 35°16' W 121°41'510.4
2018-Nov-04 20:03N 35°13' W 121°37'110.5
2018-Nov-04 20:00N 35°12' W 121°37'510.1
2018-Nov-04 19:30N 35°08' W 121°33'4 9.7
2018-Nov-04 19:03N 35°05' W 121°29'1 9.9
2018-Nov-04 19:00N 35°04' W 121°29'5 9.9
2018-Nov-04 18:30N 35°01' W 121°25'4 9.8
2018-Nov-04 18:03N 34°57' W 121°22'0 9.6
2018-Nov-04 18:00N 34°57' W 121°22'9 9.5
2018-Nov-04 17:03N 34°50' W 121°15'0 8.6
2018-Nov-04 17:00N 34°49' W 121°14'5 9.6
2018-Nov-04 16:30N 34°46' W 121°11'4 9.9
2018-Nov-04 16:03N 34°42' W 121°07'0 9.6
2018-Nov-04 16:00N 34°42' W 121°07'5 9.7
2018-Nov-04 15:30N 34°38' W 121°03'510.0
2018-Nov-04 15:03N 34°34' W 121°00'112.3
2018-Nov-04 15:00N 34°34' W 120°60'5 9.6
2018-Nov-04 14:30N 34°30' W 120°56'4 9.7
2018-Nov-04 14:03N 34°27' W 120°52'010.2
2018-Nov-04 14:00N 34°27' W 120°52'510.2
2018-Nov-04 13:29N 34°25' W 120°46'5 9.5
2018-Nov-04 13:00N 34°24' W 120°40'5 9.5
2018-Nov-04 12:30N 34°23' W 120°35'5 9.9
2018-Nov-04 12:01N 34°21' W 120°29'012.2
2018-Nov-04 12:00N 34°21' W 120°29'510.2
2018-Nov-04 11:30N 34°20' W 120°23'510.3
2018-Nov-04 11:02N 34°19' W 120°18'0 9.9
2018-Nov-04 11:00N 34°18' W 120°17'510.3
2018-Nov-04 10:30N 34°17' W 120°11'510.5
2018-Nov-04 10:03N 34°16' W 120°06'110.3
2018-Nov-04 10:00N 34°16' W 120°05'510.3
2018-Nov-04 09:30N 34°14' W 119°59'4 9.8
2018-Nov-04 09:03N 34°13' W 119°54'010.4
2018-Nov-04 09:00N 34°13' W 119°53'510.1
2018-Nov-04 08:30N 34°12' W 119°47'510.3
2018-Nov-04 08:03N 34°10' W 119°42'0 9.4
2018-Nov-04 08:00N 34°10' W 119°42'510.0
2018-Nov-04 07:30N 34°09' W 119°36'510.4
2018-Nov-04 07:03N 34°07' W 119°30'0 9.5
2018-Nov-04 07:00N 34°07' W 119°30'510.2
2018-Nov-04 06:30N 34°06' W 119°24'510.3
2018-Nov-04 06:03N 34°05' W 119°18'110.4
2018-Nov-04 06:00N 34°05' W 119°18'510.0
2018-Nov-04 05:30N 34°03' W 119°12'4 9.9
2018-Nov-04 05:03N 34°01' W 119°08'1 9.1
2018-Nov-04 05:00N 34°00' W 119°07'5 9.8
2018-Nov-04 04:30N 33°58' W 119°02'510.2
2018-Nov-04 04:03N 33°56' W 118°57'110.3
2018-Nov-04 04:00N 33°55' W 118°57'510.3
2018-Nov-04 03:30N 33°53' W 118°51'510.4
2018-Nov-04 03:03N 33°51' W 118°46'0 9.8
2018-Nov-04 03:00N 33°50' W 118°46'510.2
2018-Nov-04 02:30N 33°48' W 118°41'510.0
2018-Nov-04 02:03N 33°45' W 118°36'110.3
2018-Nov-04 02:00N 33°45' W 118°36'510.0
2018-Nov-04 01:30N 33°43' W 118°30'510.3
2018-Nov-04 01:03N 33°40' W 118°25'010.0
2018-Nov-04 01:00N 33°40' W 118°25'510.2
2018-Nov-04 00:30N 33°38' W 118°19'4 9.0
2018-Nov-04 00:03N 33°41' W 118°15'110.8
2018-Nov-04 00:00N 33°41' W 118°15'3 6.9
2018-Nov-03 23:30N 33°45' W 118°17'0 0.9
2018-Nov-03 23:03N 33°45' W 118°17'0 0.0
2018-Nov-03 22:57N 33°45' W 118°17'0 0.0
2018-Nov-03 22:29N 33°45' W 118°17'0 0.0
2018-Nov-03 20:28N 33°45' W 118°17'0 0.0
2018-Nov-03 20:01N 33°45' W 118°17'0 0.0
2018-Nov-03 19:58N 33°45' W 118°17'0 0.0
2018-Nov-03 19:28N 33°45' W 118°17'0 0.0
2018-Nov-03 19:01N 33°45' W 118°17'0 0.0
2018-Nov-03 18:58N 33°45' W 118°17'0 0.0
2018-Nov-03 18:28N 33°45' W 118°17'0 0.0
2018-Nov-03 18:03N 33°45' W 118°17'0 0.0
2018-Nov-03 18:00N 33°45' W 118°17'0 0.0
2018-Nov-03 17:30N 33°45' W 118°17'0 0.0
2018-Nov-03 17:03N 33°45' W 118°17'0 0.0
2018-Nov-03 17:00N 33°45' W 118°17'0 0.0
2018-Nov-03 16:30N 33°45' W 118°17'0 0.0
2018-Nov-03 16:03N 33°45' W 118°17'0 0.0
2018-Nov-03 15:57N 33°45' W 118°17'0 0.0
2018-Nov-03 15:29N 33°45' W 118°17'0 0.0
2018-Nov-03 15:02N 33°45' W 118°17'0 0.0
2018-Nov-03 14:59N 33°45' W 118°17'0 0.0
2018-Nov-03 14:29N 33°45' W 118°17'0 0.0
2018-Nov-03 13:59N 33°45' W 118°17'0 0.0
2018-Nov-03 13:28N 33°45' W 118°17'0 0.0
2018-Nov-03 13:01N 33°45' W 118°17'0 0.0
2018-Nov-03 12:58N 33°45' W 118°17'0 0.1
2018-Nov-03 12:30N 33°45' W 118°17'2 3.4
2018-Nov-03 12:03N 33°43' W 118°16'0 6.5
2018-Nov-03 12:00N 33°43' W 118°16'4 8.7
2018-Nov-03 11:30N 33°40' W 118°13'511.9
2018-Nov-03 11:03N 33°35' W 118°09'111.7
2018-Nov-03 11:00N 33°35' W 118°09'612.1
2018-Nov-03 10:30N 33°29' W 118°07'512.2
2018-Nov-03 10:03N 33°24' W 118°04'112.9
2018-Nov-03 10:00N 33°23' W 118°04'612.4
2018-Nov-03 09:30N 33°17' W 118°02'511.5
2018-Nov-03 09:03N 33°13' W 117°59'112.0
2018-Nov-03 09:00N 33°12' W 117°59'815.7
2018-Nov-03 08:30N 33°05' W 117°56'818.0
2018-Nov-03 08:04N 32°57' W 117°53'117.9
2018-Nov-03 08:00N 32°56' W 117°52'918.1
2018-Nov-03 07:30N 32°48' W 117°49'818.1
2018-Nov-03 07:03N 32°40' W 117°45'117.9
2018-Nov-03 07:00N 32°39' W 117°45'917.8
2018-Nov-03 06:30N 32°31' W 117°41'817.6
2018-Nov-03 06:03N 32°23' W 117°38'117.5
2018-Nov-03 06:00N 32°23' W 117°38'917.5
2018-Nov-03 05:31N 32°14' W 117°34'817.8
2018-Nov-03 05:03N 32°07' W 117°31'118.2
2018-Nov-03 05:00N 32°06' W 117°30'918.3
2018-Nov-03 04:30N 31°57' W 117°27'818.4
2018-Nov-03 04:03N 31°50' W 117°23'118.2
2018-Nov-03 04:00N 31°49' W 117°23'918.5
2018-Nov-03 03:30N 31°40' W 117°19'818.6
2018-Nov-03 03:04N 31°32' W 117°16'118.5
2018-Nov-03 03:00N 31°31' W 117°16'918.4
2018-Nov-03 02:30N 31°23' W 117°12'818.5
2018-Nov-03 02:04N 31°15' W 117°08'118.3
2018-Nov-03 02:00N 31°14' W 117°08'918.2
2018-Nov-03 01:30N 31°05' W 117°04'818.3
2018-Nov-03 01:04N 30°58' W 117°01'118.2
2018-Nov-03 01:00N 30°57' W 117°01'  

Dump ship's entire track history